createdAt,value
2018-04-17T00:00:16.003Z,994.08
2018-04-17T00:01:15.926Z,994.11
2018-04-17T00:02:15.851Z,994.09
2018-04-17T00:03:15.777Z,994.07
2018-04-17T00:04:15.699Z,994.07
2018-04-17T00:05:15.623Z,994.11
2018-04-17T00:06:15.548Z,994.09
2018-04-17T00:07:15.472Z,994.08
2018-04-17T00:08:15.402Z,994.09
2018-04-17T00:09:15.321Z,994.10
2018-04-17T00:10:15.245Z,994.09
2018-04-17T00:11:15.168Z,994.09
2018-04-17T00:12:15.092Z,994.10
2018-04-17T00:13:15.019Z,994.05
2018-04-17T00:14:14.945Z,994.10
2018-04-17T00:15:14.866Z,994.08
2018-04-17T00:16:14.790Z,994.13
2018-04-17T00:17:14.713Z,994.12
2018-04-17T00:18:14.638Z,994.12
2018-04-17T00:19:14.562Z,994.13
2018-04-17T00:20:14.486Z,994.15
2018-04-17T00:21:14.410Z,994.18
2018-04-17T00:22:14.334Z,994.17
2018-04-17T00:23:14.259Z,994.20
2018-04-17T00:24:14.185Z,994.19
2018-04-17T00:25:14.106Z,994.24
2018-04-17T00:26:14.031Z,994.24
2018-04-17T00:27:13.959Z,994.21
2018-04-17T00:28:13.879Z,994.22
2018-04-17T00:29:13.803Z,994.23
2018-04-17T00:30:13.728Z,994.26
2018-04-17T00:31:13.652Z,994.25
2018-04-17T00:32:13.578Z,994.22
2018-04-17T00:33:13.503Z,994.21
2018-04-17T00:34:13.424Z,994.20
2018-04-17T00:35:13.348Z,994.21
2018-04-17T00:36:13.273Z,994.19
2018-04-17T00:37:13.197Z,994.15
2018-04-17T00:38:13.121Z,994.21
2018-04-17T00:39:13.045Z,994.15
2018-04-17T00:40:12.969Z,994.20
2018-04-17T00:41:12.892Z,994.18
2018-04-17T00:42:12.817Z,994.15
2018-04-17T00:43:12.740Z,994.21
2018-04-17T00:44:12.665Z,994.18
2018-04-17T00:45:12.628Z,994.21
2018-04-17T00:46:12.513Z,994.24
2018-04-17T00:47:12.438Z,994.25
2018-04-17T00:48:12.368Z,994.32
2018-04-17T00:49:12.287Z,994.32
2018-04-17T00:50:12.210Z,994.33
2018-04-17T00:51:12.134Z,994.35
2018-04-17T00:52:12.059Z,994.37
2018-04-17T00:53:11.982Z,994.38
2018-04-17T00:54:11.906Z,994.39
2018-04-17T00:55:11.831Z,994.40
2018-04-17T00:56:11.757Z,994.42
2018-04-17T00:57:11.678Z,994.41
2018-04-17T00:58:11.603Z,994.43
2018-04-17T00:59:11.526Z,994.47
2018-04-17T01:00:11.452Z,994.45
2018-04-17T01:01:11.376Z,994.50
2018-04-17T01:02:11.299Z,994.48
2018-04-17T01:03:11.223Z,994.51
2018-04-17T01:04:11.148Z,994.55
2018-04-17T01:05:11.070Z,994.53
2018-04-17T01:06:10.994Z,994.58
2018-04-17T01:07:10.919Z,994.53
2018-04-17T01:08:10.843Z,994.57
2018-04-17T01:09:10.766Z,994.56
2018-04-17T01:10:10.690Z,994.58
2018-04-17T01:11:10.616Z,994.56
2018-04-17T01:12:10.539Z,994.58
2018-04-17T01:13:10.462Z,994.58
2018-04-17T01:14:10.386Z,994.62
2018-04-17T01:15:10.310Z,994.66
2018-04-17T01:16:10.234Z,994.60
2018-04-17T01:17:10.156Z,994.61
2018-04-17T01:18:10.082Z,994.61
2018-04-17T01:19:10.006Z,994.66
2018-04-17T01:20:09.929Z,994.67
2018-04-17T01:21:09.853Z,994.66
2018-04-17T01:22:09.777Z,994.70
2018-04-17T01:23:09.701Z,994.73
2018-04-17T01:24:09.624Z,994.70
2018-04-17T01:25:09.548Z,994.65
2018-04-17T01:26:09.472Z,994.67
2018-04-17T01:27:09.396Z,994.69
2018-04-17T01:28:09.320Z,994.67
2018-04-17T01:29:09.243Z,994.69
2018-04-17T01:30:09.168Z,994.65
2018-04-17T01:31:09.095Z,994.68
2018-04-17T01:32:09.016Z,994.66
2018-04-17T01:33:08.938Z,994.69
2018-04-17T01:34:08.863Z,994.71
2018-04-17T01:35:08.792Z,994.71
2018-04-17T01:36:08.712Z,994.69
2018-04-17T01:37:08.640Z,994.70
2018-04-17T01:38:08.560Z,994.68
2018-04-17T01:39:08.484Z,994.74
2018-04-17T01:40:08.408Z,994.74
2018-04-17T01:41:08.331Z,994.74
2018-04-17T01:42:08.255Z,994.78
2018-04-17T01:43:08.179Z,994.79
2018-04-17T01:44:08.142Z,994.78
2018-04-17T01:45:08.027Z,994.79
2018-04-17T01:46:07.951Z,994.86
2018-04-17T01:47:07.876Z,994.80
2018-04-17T01:48:07.801Z,994.84
2018-04-17T01:49:07.722Z,994.89
2018-04-17T01:50:07.647Z,994.85
2018-04-17T01:51:07.570Z,994.86
2018-04-17T01:52:07.499Z,994.88
2018-04-17T01:53:07.456Z,994.92
2018-04-17T01:54:07.345Z,994.88
2018-04-17T01:55:07.268Z,994.86
2018-04-17T01:56:07.193Z,994.92
2018-04-17T01:57:07.118Z,994.92
2018-04-17T01:58:07.043Z,994.91
2018-04-17T01:59:06.965Z,994.90
2018-04-17T02:00:06.890Z,994.89
2018-04-17T02:01:06.813Z,994.90
2018-04-17T02:02:06.736Z,994.91
2018-04-17T02:03:06.661Z,994.92
2018-04-17T02:04:06.587Z,994.93
2018-04-17T02:05:06.509Z,994.92
2018-04-17T02:06:06.435Z,994.92
2018-04-17T02:07:06.361Z,994.90
2018-04-17T02:08:06.281Z,994.92
2018-04-17T02:09:06.210Z,994.93
2018-04-17T02:10:06.129Z,994.93
2018-04-17T02:11:06.055Z,994.92
2018-04-17T02:12:05.987Z,994.94
2018-04-17T02:13:05.900Z,994.94
2018-04-17T02:14:05.825Z,994.98
2018-04-17T02:15:05.750Z,994.99
2018-04-17T02:16:05.673Z,994.99
2018-04-17T02:17:05.595Z,994.99
2018-04-17T02:18:05.520Z,994.97
2018-04-17T02:19:05.451Z,995.02
2018-04-17T02:20:05.406Z,995.02
2018-04-17T02:21:05.290Z,995.02
2018-04-17T02:22:05.215Z,995.02
2018-04-17T02:23:05.139Z,995.03
2018-04-17T02:24:05.061Z,995.00
2018-04-17T02:25:04.986Z,994.99
2018-04-17T02:26:04.909Z,994.99
2018-04-17T02:27:04.834Z,994.99
2018-04-17T02:28:04.756Z,994.95
2018-04-17T02:29:04.681Z,994.92
2018-04-17T02:30:04.606Z,994.94
2018-04-17T02:31:04.530Z,994.95
2018-04-17T02:32:04.453Z,994.89
2018-04-17T02:33:04.377Z,994.90
2018-04-17T02:34:04.300Z,994.90
2018-04-17T02:35:04.224Z,994.90
2018-04-17T02:36:04.148Z,994.87
2018-04-17T02:37:04.072Z,994.90
2018-04-17T02:38:04.003Z,994.93
2018-04-17T02:39:03.918Z,994.93
2018-04-17T02:40:03.843Z,994.96
2018-04-17T02:41:03.765Z,994.93
2018-04-17T02:42:03.691Z,995.00
2018-04-17T02:43:03.612Z,994.98
2018-04-17T02:44:03.536Z,994.97
2018-04-17T02:45:03.459Z,995.00
2018-04-17T02:46:03.382Z,994.99
2018-04-17T02:47:03.305Z,995.00
2018-04-17T02:48:03.231Z,995.06
2018-04-17T02:49:03.152Z,995.03
2018-04-17T02:50:03.077Z,995.03
2018-04-17T02:51:03.003Z,995.03
2018-04-17T02:52:02.928Z,995.09
2018-04-17T02:53:02.849Z,995.09
2018-04-17T02:54:02.771Z,995.09
2018-04-17T02:55:02.704Z,995.07
2018-04-17T02:56:02.617Z,995.13
2018-04-17T02:57:02.540Z,995.08
2018-04-17T02:58:02.466Z,995.11
2018-04-17T02:59:02.395Z,995.14
2018-04-17T03:00:02.311Z,995.16
2018-04-17T03:01:02.233Z,995.16
2018-04-17T03:02:02.158Z,995.16
2018-04-17T03:03:02.088Z,995.15
2018-04-17T03:04:02.004Z,995.13
2018-04-17T03:05:01.925Z,995.16
2018-04-17T03:06:01.851Z,995.20
2018-04-17T03:07:01.776Z,995.19
2018-04-17T03:08:01.997Z,995.23
2018-04-17T03:09:01.619Z,995.23
2018-04-17T03:10:01.543Z,995.28
2018-04-17T03:11:01.466Z,995.30
2018-04-17T03:12:01.390Z,995.28
2018-04-17T03:13:01.315Z,995.29
2018-04-17T03:14:01.235Z,995.31
2018-04-17T03:15:01.162Z,995.30
2018-04-17T03:16:01.086Z,995.30
2018-04-17T03:17:01.005Z,995.32
2018-04-17T03:18:00.930Z,995.32
2018-04-17T03:19:00.851Z,995.33
2018-04-17T03:20:00.782Z,995.35
2018-04-17T03:21:00.698Z,995.39
2018-04-17T03:22:00.623Z,995.37
2018-04-17T03:23:00.546Z,995.35
2018-04-17T03:24:00.468Z,995.37
2018-04-17T03:25:00.390Z,995.40
2018-04-17T03:26:00.313Z,995.42
2018-04-17T03:27:00.237Z,995.39
2018-04-17T03:28:00.160Z,995.40
2018-04-17T03:29:00.083Z,995.41
2018-04-17T03:30:00.008Z,995.39
2018-04-17T03:30:59.931Z,995.43
2018-04-17T03:31:59.856Z,995.40
2018-04-17T03:32:59.775Z,995.43
2018-04-17T03:33:59.698Z,995.43
2018-04-17T03:34:59.621Z,995.41
2018-04-17T03:35:59.543Z,995.39
2018-04-17T03:36:59.466Z,995.45
2018-04-17T03:37:59.394Z,995.46
2018-04-17T03:38:59.311Z,995.50
2018-04-17T03:39:59.236Z,995.49
2018-04-17T03:40:59.158Z,995.52
2018-04-17T03:41:59.081Z,995.50
2018-04-17T03:42:59.002Z,995.54
2018-04-17T03:43:58.927Z,995.55
2018-04-17T03:44:58.848Z,995.55
2018-04-17T03:45:58.772Z,995.59
2018-04-17T03:46:58.697Z,995.57
2018-04-17T03:47:58.619Z,995.61
2018-04-17T03:48:58.539Z,995.59
2018-04-17T03:49:58.467Z,995.59
2018-04-17T03:50:58.386Z,995.61
2018-04-17T03:51:58.312Z,995.58
2018-04-17T03:52:58.232Z,995.62
2018-04-17T03:53:58.155Z,995.60
2018-04-17T03:54:58.078Z,995.61
2018-04-17T03:55:58.002Z,995.62
2018-04-17T03:56:57.925Z,995.61
2018-04-17T03:57:57.846Z,995.63
2018-04-17T03:58:57.772Z,995.63
2018-04-17T03:59:57.697Z,995.67
2018-04-17T04:00:57.616Z,995.65
2018-04-17T04:01:57.538Z,995.67
2018-04-17T04:02:57.464Z,995.68
2018-04-17T04:03:57.384Z,995.72
2018-04-17T04:04:57.309Z,995.71
2018-04-17T04:05:57.229Z,995.72
2018-04-17T04:06:57.152Z,995.76
2018-04-17T04:07:57.078Z,995.75
2018-04-17T04:08:56.997Z,995.76
2018-04-17T04:09:56.925Z,995.77
2018-04-17T04:10:56.843Z,995.79
2018-04-17T04:11:56.767Z,995.80
2018-04-17T04:12:56.689Z,995.80
2018-04-17T04:13:56.611Z,995.82
2018-04-17T04:14:56.535Z,995.83
2018-04-17T04:15:56.607Z,995.83
2018-04-17T04:16:56.379Z,995.84
2018-04-17T04:17:56.303Z,995.84
2018-04-17T04:18:56.225Z,995.86
2018-04-17T04:19:56.148Z,995.88
2018-04-17T04:20:56.070Z,995.91
2018-04-17T04:21:55.993Z,995.94
2018-04-17T04:22:55.915Z,995.95
2018-04-17T04:23:55.839Z,995.98
2018-04-17T04:24:55.762Z,995.95
2018-04-17T04:25:55.689Z,995.98
2018-04-17T04:26:55.609Z,995.99
2018-04-17T04:27:55.529Z,996.03
2018-04-17T04:28:55.451Z,995.99
2018-04-17T04:29:55.374Z,996.04
2018-04-17T04:30:55.297Z,996.05
2018-04-17T04:31:55.220Z,996.05
2018-04-17T04:32:55.142Z,996.07
2018-04-17T04:33:55.065Z,996.08
2018-04-17T04:34:54.988Z,996.09
2018-04-17T04:35:54.911Z,996.12
2018-04-17T04:36:54.832Z,996.09
2018-04-17T04:37:54.756Z,996.10
2018-04-17T04:38:54.680Z,996.16
2018-04-17T04:39:54.604Z,996.16
2018-04-17T04:40:54.525Z,996.15
2018-04-17T04:41:54.448Z,996.16
2018-04-17T04:42:54.369Z,996.16
2018-04-17T04:43:54.293Z,996.20
2018-04-17T04:44:54.214Z,996.19
2018-04-17T04:45:54.139Z,996.22
2018-04-17T04:46:54.061Z,996.23
2018-04-17T04:47:53.984Z,996.22
2018-04-17T04:48:53.907Z,996.20
2018-04-17T04:49:53.830Z,996.21
2018-04-17T04:50:53.758Z,996.20
2018-04-17T04:51:53.675Z,996.17
2018-04-17T04:52:53.599Z,996.20
2018-04-17T04:53:53.520Z,996.20
2018-04-17T04:54:53.444Z,996.20
2018-04-17T04:55:53.372Z,996.21
2018-04-17T04:56:53.289Z,996.24
2018-04-17T04:57:53.211Z,996.24
2018-04-17T04:58:53.134Z,996.24
2018-04-17T04:59:53.057Z,996.26
2018-04-17T05:00:52.978Z,996.30
2018-04-17T05:01:52.902Z,996.30
2018-04-17T05:02:52.825Z,996.32
2018-04-17T05:03:52.750Z,996.33
2018-04-17T05:04:52.710Z,996.35
2018-04-17T05:05:52.594Z,996.33
2018-04-17T05:06:52.516Z,996.39
2018-04-17T05:07:52.439Z,996.38
2018-04-17T05:08:52.361Z,996.36
2018-04-17T05:09:52.290Z,996.34
2018-04-17T05:10:52.209Z,996.36
2018-04-17T05:11:52.131Z,996.37
2018-04-17T05:12:52.079Z,996.39
2018-04-17T05:13:51.977Z,996.43
2018-04-17T05:14:51.900Z,996.42
2018-04-17T05:15:51.825Z,996.40
2018-04-17T05:16:51.748Z,996.41
2018-04-17T05:17:51.668Z,996.46
2018-04-17T05:18:51.592Z,996.45
2018-04-17T05:19:51.516Z,996.46
2018-04-17T05:20:51.438Z,996.49
2018-04-17T05:21:51.361Z,996.49
2018-04-17T05:22:51.284Z,996.54
2018-04-17T05:23:51.255Z,996.50
2018-04-17T05:24:51.131Z,996.53
2018-04-17T05:25:51.055Z,996.56
2018-04-17T05:26:50.976Z,996.56
2018-04-17T05:27:50.902Z,996.59
2018-04-17T05:28:50.824Z,996.59
2018-04-17T05:29:50.745Z,996.62
2018-04-17T05:30:50.670Z,996.61
2018-04-17T05:31:50.593Z,996.64
2018-04-17T05:32:50.521Z,996.64
2018-04-17T05:33:50.440Z,996.65
2018-04-17T05:34:50.363Z,996.67
2018-04-17T05:35:50.288Z,996.65
2018-04-17T05:36:50.207Z,996.64
2018-04-17T05:37:50.132Z,996.68
2018-04-17T05:38:50.058Z,996.69
2018-04-17T05:39:49.979Z,996.73
2018-04-17T05:40:49.902Z,996.72
2018-04-17T05:41:49.830Z,996.73
2018-04-17T05:42:49.747Z,996.73
2018-04-17T05:43:49.973Z,996.76
2018-04-17T05:44:49.596Z,996.77
2018-04-17T05:45:49.519Z,996.80
2018-04-17T05:46:49.445Z,996.80
2018-04-17T05:47:49.366Z,996.86
2018-04-17T05:48:49.289Z,996.89
2018-04-17T05:49:49.213Z,996.90
2018-04-17T05:50:49.138Z,996.92
2018-04-17T05:51:49.062Z,996.94
2018-04-17T05:52:48.984Z,996.93
2018-04-17T05:53:48.907Z,996.97
2018-04-17T05:54:48.829Z,997.03
2018-04-17T05:55:48.789Z,997.02
2018-04-17T05:56:48.679Z,996.99
2018-04-17T05:57:48.604Z,997.00
2018-04-17T05:58:48.528Z,997.01
2018-04-17T05:59:48.454Z,997.04
2018-04-17T06:00:48.375Z,997.06
2018-04-17T06:01:48.300Z,997.05
2018-04-17T06:02:48.222Z,997.10
2018-04-17T06:03:48.146Z,997.05
2018-04-17T06:04:48.070Z,997.11
2018-04-17T06:05:47.994Z,997.12
2018-04-17T06:06:47.919Z,997.15
2018-04-17T06:07:47.842Z,997.15
2018-04-17T06:08:47.766Z,997.17
2018-04-17T06:09:47.692Z,997.14
2018-04-17T06:10:47.617Z,997.15
2018-04-17T06:11:47.542Z,997.19
2018-04-17T06:12:47.466Z,997.17
2018-04-17T06:13:47.405Z,997.18
2018-04-17T06:14:47.323Z,997.19
2018-04-17T06:15:47.243Z,997.21
2018-04-17T06:16:47.164Z,997.21
2018-04-17T06:17:47.091Z,997.24
2018-04-17T06:18:47.014Z,997.27
2018-04-17T06:19:46.940Z,997.25
2018-04-17T06:20:46.864Z,997.27
2018-04-17T06:21:46.788Z,997.28
2018-04-17T06:22:46.713Z,997.29
2018-04-17T06:23:46.638Z,997.31
2018-04-17T06:24:46.563Z,997.25
2018-04-17T06:25:46.487Z,997.31
2018-04-17T06:26:46.414Z,997.30
2018-04-17T06:27:46.344Z,997.33
2018-04-17T06:28:46.268Z,997.36
2018-04-17T06:29:46.190Z,997.31
2018-04-17T06:30:46.116Z,997.35
2018-04-17T06:31:46.041Z,997.41
2018-04-17T06:32:45.967Z,997.40
2018-04-17T06:33:45.894Z,997.39
2018-04-17T06:34:45.818Z,997.39
2018-04-17T06:35:45.744Z,997.47
2018-04-17T06:36:45.668Z,997.46
2018-04-17T06:37:45.595Z,997.44
2018-04-17T06:38:45.521Z,997.40
2018-04-17T06:39:45.447Z,997.43
2018-04-17T06:40:45.373Z,997.42
2018-04-17T06:41:45.350Z,997.49
2018-04-17T06:42:45.225Z,997.51
2018-04-17T06:43:45.151Z,997.52
2018-04-17T06:44:45.077Z,997.56
2018-04-17T06:45:45.004Z,997.53
2018-04-17T06:46:44.930Z,997.57
2018-04-17T06:47:44.918Z,997.58
2018-04-17T06:48:44.781Z,997.57
2018-04-17T06:49:44.709Z,997.59
2018-04-17T06:50:44.635Z,997.59
2018-04-17T06:51:44.562Z,997.64
2018-04-17T06:52:44.531Z,997.64
2018-04-17T06:53:44.414Z,997.68
2018-04-17T06:54:44.341Z,997.69
2018-04-17T06:55:44.268Z,997.65
2018-04-17T06:56:44.195Z,997.68
2018-04-17T06:57:44.120Z,997.70
2018-04-17T06:58:44.047Z,997.69
2018-04-17T06:59:43.974Z,997.72
2018-04-17T07:00:43.901Z,997.75
2018-04-17T07:01:43.833Z,997.81
2018-04-17T07:02:43.755Z,997.76
2018-04-17T07:03:43.682Z,997.76
2018-04-17T07:04:43.607Z,997.76
2018-04-17T07:05:43.534Z,997.81
2018-04-17T07:06:43.460Z,997.80
2018-04-17T07:07:43.387Z,997.79
2018-04-17T07:08:43.315Z,997.84
2018-04-17T07:09:43.240Z,997.85
2018-04-17T07:10:43.168Z,997.92
2018-04-17T07:11:43.104Z,997.96
2018-04-17T07:12:43.020Z,997.95
2018-04-17T07:13:42.948Z,997.98
2018-04-17T07:14:42.876Z,998.01
2018-04-17T07:15:42.805Z,998.08
2018-04-17T07:16:42.729Z,998.10
2018-04-17T07:17:42.658Z,998.12
2018-04-17T07:18:42.584Z,998.14
2018-04-17T07:19:42.512Z,998.15
2018-04-17T07:20:42.437Z,998.19
2018-04-17T07:21:42.364Z,998.16
2018-04-17T07:22:42.292Z,998.18
2018-04-17T07:23:42.276Z,998.17
2018-04-17T07:24:42.147Z,998.17
2018-04-17T07:25:42.072Z,998.18
2018-04-17T07:26:42.000Z,998.19
2018-04-17T07:27:41.932Z,998.17
2018-04-17T07:28:41.862Z,998.22
2018-04-17T07:29:41.782Z,998.21
2018-04-17T07:30:41.709Z,998.21
2018-04-17T07:31:41.637Z,998.23
2018-04-17T07:32:41.568Z,998.24
2018-04-17T07:33:41.490Z,998.29
2018-04-17T07:34:41.471Z,998.32
2018-04-17T07:35:41.345Z,998.27
2018-04-17T07:36:41.275Z,998.29
2018-04-17T07:37:41.200Z,998.28
2018-04-17T07:38:41.127Z,998.28
2018-04-17T07:39:41.055Z,998.28
2018-04-17T07:40:40.981Z,998.29
2018-04-17T07:41:40.909Z,998.30
2018-04-17T07:42:40.837Z,998.31
2018-04-17T07:43:40.765Z,998.30
2018-04-17T07:44:40.692Z,998.30
2018-04-17T07:45:40.619Z,998.29
2018-04-17T07:46:40.547Z,998.30
2018-04-17T07:47:40.475Z,998.31
2018-04-17T07:48:40.403Z,998.33
2018-04-17T07:49:40.334Z,998.35
2018-04-17T07:50:40.258Z,998.41
2018-04-17T07:51:40.184Z,998.37
2018-04-17T07:52:40.111Z,998.34
2018-04-17T07:53:40.041Z,998.37
2018-04-17T07:54:39.967Z,998.39
2018-04-17T07:55:39.907Z,998.43
2018-04-17T07:56:39.822Z,998.48
2018-04-17T07:57:39.752Z,998.48
2018-04-17T07:58:39.679Z,998.47
2018-04-17T07:59:39.607Z,998.43
2018-04-17T08:00:39.536Z,998.44
2018-04-17T08:01:39.464Z,998.46
2018-04-17T08:02:39.392Z,998.43
2018-04-17T08:03:39.319Z,998.42
2018-04-17T08:04:39.249Z,998.40
2018-04-17T08:05:39.175Z,998.39
2018-04-17T08:06:39.104Z,998.40
2018-04-17T08:07:39.032Z,998.38
2018-04-17T08:08:38.961Z,998.42
2018-04-17T08:09:38.889Z,998.34
2018-04-17T08:10:38.824Z,998.37
2018-04-17T08:11:38.747Z,998.36
2018-04-17T08:12:38.674Z,998.35
2018-04-17T08:13:38.602Z,998.33
2018-04-17T08:14:38.531Z,998.38
2018-04-17T08:15:38.462Z,998.35
2018-04-17T08:16:38.387Z,998.39
2018-04-17T08:17:38.325Z,998.40
2018-04-17T08:18:38.244Z,998.38
2018-04-17T08:19:38.173Z,998.42
2018-04-17T08:20:38.102Z,998.39
2018-04-17T08:21:38.030Z,998.39
2018-04-17T08:22:37.959Z,998.42
2018-04-17T08:23:37.887Z,998.35
2018-04-17T08:24:37.816Z,998.40
2018-04-17T08:25:37.745Z,998.40
2018-04-17T08:26:37.675Z,998.37
2018-04-17T08:27:37.603Z,998.41
2018-04-17T08:28:37.535Z,998.42
2018-04-17T08:29:37.460Z,998.44
2018-04-17T08:30:37.397Z,998.46
2018-04-17T08:31:37.318Z,998.47
2018-04-17T08:32:37.246Z,998.46
2018-04-17T08:33:37.175Z,998.44
2018-04-17T08:34:37.104Z,998.47
2018-04-17T08:35:37.032Z,998.47
2018-04-17T08:36:36.961Z,998.49
2018-04-17T08:37:36.891Z,998.49
2018-04-17T08:38:36.819Z,998.49
2018-04-17T08:39:36.747Z,998.54
2018-04-17T08:40:36.676Z,998.54
2018-04-17T08:41:36.605Z,998.57
2018-04-17T08:42:36.535Z,998.55
2018-04-17T08:43:36.464Z,998.55
2018-04-17T08:44:36.393Z,998.52
2018-04-17T08:45:36.321Z,998.53
2018-04-17T08:46:36.250Z,998.50
2018-04-17T08:47:36.178Z,998.52
2018-04-17T08:48:36.110Z,998.54
2018-04-17T08:49:36.038Z,998.55
2018-04-17T08:50:35.966Z,998.53
2018-04-17T08:51:35.896Z,998.56
2018-04-17T08:52:35.824Z,998.51
2018-04-17T08:53:35.762Z,998.49
2018-04-17T08:54:35.683Z,998.53
2018-04-17T08:55:35.612Z,998.49
2018-04-17T08:56:35.541Z,998.52
2018-04-17T08:57:35.470Z,998.51
2018-04-17T08:58:35.398Z,998.55
2018-04-17T08:59:35.351Z,998.54
2018-04-17T09:00:35.258Z,998.56
2018-04-17T09:01:35.189Z,998.58
2018-04-17T09:02:35.116Z,998.58
2018-04-17T09:03:35.047Z,998.57
2018-04-17T09:04:34.974Z,998.58
2018-04-17T09:05:34.905Z,998.61
2018-04-17T09:06:34.835Z,998.64
2018-04-17T09:07:34.764Z,998.66
2018-04-17T09:08:34.699Z,998.68
2018-04-17T09:09:34.627Z,998.66
2018-04-17T09:10:34.552Z,998.70
2018-04-17T09:11:34.482Z,998.70
2018-04-17T09:12:34.411Z,998.71
2018-04-17T09:13:34.341Z,998.75
2018-04-17T09:14:34.270Z,998.77
2018-04-17T09:15:34.249Z,998.76
2018-04-17T09:16:34.129Z,998.76
2018-04-17T09:17:34.059Z,998.79
2018-04-17T09:18:33.990Z,998.78
2018-04-17T09:19:33.923Z,998.77
2018-04-17T09:20:33.848Z,998.80
2018-04-17T09:21:33.779Z,998.83
2018-04-17T09:22:33.708Z,998.79
2018-04-17T09:23:33.643Z,998.81
2018-04-17T09:24:33.567Z,998.83
2018-04-17T09:25:33.500Z,998.85
2018-04-17T09:26:33.428Z,998.86
2018-04-17T09:27:33.391Z,998.88
2018-04-17T09:28:33.287Z,998.90
2018-04-17T09:29:33.216Z,998.88
2018-04-17T09:30:33.149Z,998.91
2018-04-17T09:31:33.078Z,998.94
2018-04-17T09:32:33.016Z,998.95
2018-04-17T09:33:32.936Z,998.97
2018-04-17T09:34:32.881Z,998.98
2018-04-17T09:35:32.796Z,998.99
2018-04-17T09:36:32.726Z,999.01
2018-04-17T09:37:32.658Z,999.02
2018-04-17T09:38:32.586Z,999.02
2018-04-17T09:39:32.515Z,999.06
2018-04-17T09:40:32.447Z,999.10
2018-04-17T09:41:32.376Z,999.12
2018-04-17T09:42:32.343Z,999.12
2018-04-17T09:43:32.236Z,999.14
2018-04-17T09:44:32.165Z,999.17
2018-04-17T09:45:32.096Z,999.16
2018-04-17T09:46:32.027Z,999.18
2018-04-17T09:47:31.955Z,999.21
2018-04-17T09:48:31.885Z,999.21
2018-04-17T09:49:31.818Z,999.22
2018-04-17T09:50:31.756Z,999.18
2018-04-17T09:51:31.677Z,999.19
2018-04-17T09:52:31.606Z,999.14
2018-04-17T09:53:31.536Z,999.19
2018-04-17T09:54:31.466Z,999.18
2018-04-17T09:55:31.396Z,999.20
2018-04-17T09:56:31.326Z,999.16
2018-04-17T09:57:31.309Z,999.23
2018-04-17T09:58:31.187Z,999.20
2018-04-17T09:59:31.122Z,999.18
2018-04-17T10:00:31.048Z,999.19
2018-04-17T10:01:30.977Z,999.17
2018-04-17T10:02:30.907Z,999.16
2018-04-17T10:03:30.842Z,999.18
2018-04-17T10:04:30.769Z,999.19
2018-04-17T10:05:30.699Z,999.21
2018-04-17T10:06:30.631Z,999.22
2018-04-17T10:07:30.561Z,999.18
2018-04-17T10:08:30.492Z,999.24
2018-04-17T10:09:30.421Z,999.20
2018-04-17T10:10:30.352Z,999.17
2018-04-17T10:11:30.284Z,999.20
2018-04-17T10:12:30.213Z,999.18
2018-04-17T10:13:30.144Z,999.15
2018-04-17T10:14:30.075Z,999.19
2018-04-17T10:15:30.007Z,999.16
2018-04-17T10:16:29.937Z,999.16
2018-04-17T10:17:29.866Z,999.17
2018-04-17T10:18:29.798Z,999.17
2018-04-17T10:19:29.729Z,999.15
2018-04-17T10:20:29.659Z,999.14
2018-04-17T10:21:29.592Z,999.18
2018-04-17T10:22:29.570Z,999.16
2018-04-17T10:23:29.452Z,999.14
2018-04-17T10:24:29.385Z,999.14
2018-04-17T10:25:29.313Z,999.12
2018-04-17T10:26:29.244Z,999.13
2018-04-17T10:27:29.177Z,999.12
2018-04-17T10:28:29.107Z,999.12
2018-04-17T10:29:29.036Z,999.10
2018-04-17T10:30:28.972Z,999.12
2018-04-17T10:31:28.903Z,999.14
2018-04-17T10:32:28.831Z,999.10
2018-04-17T10:33:28.763Z,999.13
2018-04-17T10:34:28.694Z,999.07
2018-04-17T10:35:28.625Z,999.08
2018-04-17T10:36:28.554Z,999.05
2018-04-17T10:37:28.487Z,999.04
2018-04-17T10:38:28.417Z,999.02
2018-04-17T10:39:28.350Z,999.05
2018-04-17T10:40:28.279Z,998.97
2018-04-17T10:41:28.211Z,999.01
2018-04-17T10:42:28.141Z,999.03
2018-04-17T10:43:28.073Z,998.99
2018-04-17T10:44:28.006Z,998.96
2018-04-17T10:45:27.934Z,998.96
2018-04-17T10:46:27.871Z,998.98
2018-04-17T10:47:27.802Z,998.95
2018-04-17T10:48:27.729Z,999.03
2018-04-17T10:49:27.670Z,999.00
2018-04-17T10:50:27.601Z,999.05
2018-04-17T10:51:27.524Z,999.08
2018-04-17T10:52:27.455Z,999.07
2018-04-17T10:53:27.388Z,999.06
2018-04-17T10:54:27.319Z,999.08
2018-04-17T10:55:27.252Z,999.02
2018-04-17T10:56:27.184Z,999.02
2018-04-17T10:57:27.116Z,998.99
2018-04-17T10:58:27.049Z,999.04
2018-04-17T10:59:26.982Z,999.05
2018-04-17T11:00:26.912Z,999.03
2018-04-17T11:01:26.847Z,999.09
2018-04-17T11:02:26.779Z,999.04
2018-04-17T11:03:26.711Z,999.05
2018-04-17T11:04:26.644Z,999.03
2018-04-17T11:05:26.576Z,999.03
2018-04-17T11:06:26.509Z,999.03
2018-04-17T11:07:26.442Z,999.06
2018-04-17T11:08:26.375Z,999.07
2018-04-17T11:09:26.307Z,999.06
2018-04-17T11:10:26.290Z,999.04
2018-04-17T11:11:26.173Z,999.03
2018-04-17T11:12:26.105Z,999.01
2018-04-17T11:13:26.038Z,999.02
2018-04-17T11:14:25.971Z,999.01
2018-04-17T11:15:25.904Z,999.01
2018-04-17T11:16:25.836Z,998.99
2018-04-17T11:17:25.769Z,999.02
2018-04-17T11:18:25.702Z,998.97
2018-04-17T11:19:25.680Z,999.02
2018-04-17T11:20:25.567Z,998.98
2018-04-17T11:21:25.500Z,998.96
2018-04-17T11:22:25.433Z,999.00
2018-04-17T11:23:25.368Z,999.02
2018-04-17T11:24:25.297Z,999.01
2018-04-17T11:25:25.230Z,999.04
2018-04-17T11:26:25.166Z,999.09
2018-04-17T11:27:25.097Z,999.21
2018-04-17T11:28:25.033Z,999.15
2018-04-17T11:29:24.962Z,999.06
2018-04-17T11:30:24.897Z,999.13
2018-04-17T11:31:24.832Z,999.13
2018-04-17T11:32:24.767Z,999.10
2018-04-17T11:33:24.702Z,999.22
2018-04-17T11:34:24.634Z,999.11
2018-04-17T11:35:24.567Z,999.22
2018-04-17T11:36:24.505Z,999.29
2018-04-17T11:37:24.437Z,999.25
2018-04-17T11:38:24.373Z,999.25
2018-04-17T11:39:24.315Z,999.20
2018-04-17T11:40:24.245Z,999.25
2018-04-17T11:41:24.184Z,999.22
2018-04-17T11:42:24.125Z,999.25
2018-04-17T11:43:24.060Z,999.30
2018-04-17T11:44:23.997Z,999.29
2018-04-17T11:45:23.936Z,999.25
2018-04-17T11:46:23.875Z,999.26
2018-04-17T11:47:23.817Z,999.31
2018-04-17T11:48:23.755Z,999.32
2018-04-17T11:49:23.696Z,999.41
2018-04-17T11:50:23.636Z,999.44
2018-04-17T11:51:23.577Z,999.37
2018-04-17T11:52:23.519Z,999.34
2018-04-17T11:53:23.460Z,999.67
2018-04-17T11:54:23.403Z,1000.15
2018-04-17T11:55:23.345Z,1000.00
2018-04-17T11:56:23.287Z,999.83
2018-04-17T11:57:23.230Z,999.86
2018-04-17T11:58:23.172Z,999.83
2018-04-17T11:59:23.117Z,999.81
2018-04-17T12:00:23.059Z,999.91
2018-04-17T12:01:23.002Z,999.93
2018-04-17T12:02:23.011Z,999.99
2018-04-17T12:03:22.892Z,999.98
2018-04-17T12:04:22.833Z,999.98
2018-04-17T12:05:22.776Z,999.01
2018-04-17T12:06:22.723Z,998.95
2018-04-17T12:07:22.665Z,1000.10
2018-04-17T12:08:22.608Z,1000.15
2018-04-17T12:09:22.556Z,1000.21
2018-04-17T12:10:22.495Z,1000.25
2018-04-17T12:11:22.440Z,1000.11
2018-04-17T12:12:22.382Z,1000.02
2018-04-17T12:13:22.324Z,1000.09
2018-04-17T12:14:22.269Z,1000.19
2018-04-17T12:15:22.213Z,1000.12
2018-04-17T12:16:22.156Z,1000.04
2018-04-17T12:17:22.100Z,1000.01
2018-04-17T12:18:22.044Z,1000.14
2018-04-17T12:19:21.989Z,1000.14
2018-04-17T12:20:21.938Z,1000.23
2018-04-17T12:21:21.877Z,1000.32
2018-04-17T12:22:21.822Z,1000.28
2018-04-17T12:23:21.767Z,1000.29
2018-04-17T12:24:21.711Z,1000.32
2018-04-17T12:25:21.657Z,1000.29
2018-04-17T12:26:21.603Z,1000.18